Time;durP1;ratioP1;P1;durP2;ratioP2;P2;SDS_P1;SDS_P2;PMS_P1;PMS_P2;Temp;Humidity;BMP_temperature;BMP_pressure;BME280_temperature;BME280_humidity;BME280_pressure;Samples;Min_cycle;Max_cycle;Signal;HPM_P1;HPM_P2
2023/11/18 00:00:01;;;;;;;9.80;8.80;;;;;;;2.54;100.00;97956.83;107190;1277;71140;-81
2023/11/18 00:02:33;;;;;;;11.00;9.00;;;;;;;2.50;100.00;97958.42;107185;1276;60331;-81
2023/11/18 00:05:00;;;;;;;8.40;7.70;;;;;;;2.47;100.00;97964.70;107020;1276;59987;-82
2023/11/18 00:07:28;;;;;;;10.60;9.60;;;;;;;2.45;100.00;97970.65;107206;1276;74241;-82
2023/11/18 00:09:56;;;;;;;9.10;8.20;;;;;;;2.43;100.00;97972.84;107187;1276;74525;-82
2023/11/18 00:12:26;;;;;;;8.60;7.80;;;;;;;2.42;100.00;97973.42;107189;1276;72211;-83
2023/11/18 00:14:53;;;;;;;8.70;7.80;;;;;;;2.39;100.00;97977.96;107065;1277;60969;-80
2023/11/18 00:17:20;;;;;;;8.20;7.40;;;;;;;2.36;100.00;97976.50;107111;1276;59106;-82
2023/11/18 00:19:48;;;;;;;8.20;7.40;;;;;;;2.33;100.00;97980.88;106958;1276;73158;-82
2023/11/18 00:22:15;;;;;;;8.10;7.40;;;;;;;2.30;100.00;97984.89;107253;1277;72948;-82
2023/11/18 00:24:43;;;;;;;8.40;7.60;;;;;;;2.27;100.00;97983.80;107091;1276;71262;-82
2023/11/18 00:27:10;;;;;;;8.70;7.60;;;;;;;2.22;100.00;97993.20;107234;1277;60809;-82
2023/11/18 00:29:37;;;;;;;8.80;7.90;;;;;;;2.17;100.00;97997.09;107244;1276;60316;-82
2023/11/18 00:32:05;;;;;;;8.40;7.60;;;;;;;2.13;100.00;97996.56;107288;1277;73877;-82
2023/11/18 00:34:35;;;;;;;9.10;8.20;;;;;;;2.10;100.00;98000.73;107099;1276;75365;-82
2023/11/18 00:37:02;;;;;;;8.80;8.00;;;;;;;2.08;100.00;98001.71;107202;1276;73570;-82
2023/11/18 00:39:29;;;;;;;8.80;8.00;;;;;;;2.06;100.00;98005.34;107042;1276;59887;-82
2023/11/18 00:41:56;;;;;;;9.40;7.90;;;;;;;2.05;100.00;98006.61;107199;1276;60063;-83
2023/11/18 00:44:23;;;;;;;9.30;8.20;;;;;;;2.03;100.00;98010.59;107236;1276;72911;-82
2023/11/18 00:46:50;;;;;;;8.40;7.20;;;;;;;2.02;100.00;98014.16;107209;1277;73262;-82
2023/11/18 00:49:17;;;;;;;8.70;7.80;;;;;;;2.00;100.00;98020.40;107151;1277;71480;-82
2023/11/18 00:51:44;;;;;;;7.30;6.60;;;;;;;1.99;100.00;98026.79;107064;1278;61021;-82
2023/11/18 00:54:12;;;;;;;6.70;6.10;;;;;;;1.99;100.00;98029.98;107071;1278;59386;-83
2023/11/18 00:56:39;;;;;;;6.40;5.80;;;;;;;1.99;100.00;98032.63;107056;1279;73701;-82
2023/11/18 00:59:06;;;;;;;7.80;7.10;;;;;;;1.99;100.00;98030.52;107082;1280;75274;-83
2023/11/18 01:01:33;;;;;;;7.20;6.40;;;;;;;1.98;100.00;98031.23;107061;1279;73719;-83
2023/11/18 01:04:01;;;;;;;6.90;6.30;;;;;;;1.98;100.00;98027.38;106995;1278;61392;-82
2023/11/18 01:06:31;;;;;;;6.80;6.20;;;;;;;1.97;100.00;98027.41;107070;1278;59024;-82
2023/11/18 01:08:58;;;;;;;7.80;7.10;;;;;;;1.95;100.00;98024.48;106901;1279;72714;-82
2023/11/18 01:11:26;;;;;;;7.00;6.40;;;;;;;1.94;100.00;98024.69;106312;1282;1002288;-82
2023/11/18 01:13:54;;;;;;;7.00;6.30;;;;;;;1.91;100.00;98015.98;107193;1276;72990;-83
2023/11/18 01:16:21;;;;;;;7.30;6.60;;;;;;;1.89;100.00;98020.52;107177;1277;60234;-82
2023/11/18 01:18:48;;;;;;;6.90;6.20;;;;;;;1.86;100.00;98022.40;107216;1276;60499;-83
2023/11/18 01:21:17;;;;;;;7.30;6.70;;;;;;;1.84;100.00;98023.17;107239;1277;72969;-82
2023/11/18 01:23:44;;;;;;;7.80;7.00;;;;;;;1.82;100.00;98028.89;107264;1277;74333;-83
2023/11/18 01:26:15;;;;;;;7.10;6.50;;;;;;;1.81;100.00;98030.00;107255;1277;72476;-82
2023/11/18 01:28:43;;;;;;;7.80;7.10;;;;;;;1.80;100.00;98027.92;107243;1277;60252;-82
2023/11/18 01:31:11;;;;;;;6.90;6.20;;;;;;;1.79;100.00;98030.95;107284;1276;59408;-82
2023/11/18 01:33:40;;;;;;;7.90;7.20;;;;;;;1.78;100.00;98031.50;107259;1276;73819;-82
2023/11/18 01:36:11;;;;;;;8.20;7.50;;;;;;;1.78;100.00;98033.98;107210;1277;75465;-81
2023/11/18 01:38:38;;;;;;;8.30;7.60;;;;;;;1.78;100.00;98033.46;107207;1276;72514;-82
2023/11/18 01:41:06;;;;;;;7.70;7.10;;;;;;;1.78;100.00;98035.23;107191;1276;61220;-82
2023/11/18 01:43:33;;;;;;;7.30;6.60;;;;;;;1.79;100.00;98038.19;107377;1277;59493;-80
2023/11/18 01:46:02;;;;;;;7.10;6.50;;;;;;;1.81;100.00;98036.73;107076;1276;72668;-83
2023/11/18 01:48:31;;;;;;;7.00;6.40;;;;;;;1.82;100.00;98040.38;107190;1280;74252;-82
2023/11/18 01:50:58;;;;;;;6.80;6.20;;;;;;;1.84;100.00;98040.15;106954;1280;70439;-81
2023/11/18 01:53:25;;;;;;;6.40;5.80;;;;;;;1.85;100.00;98038.16;107185;1278;60246;-81
2023/11/18 01:55:52;;;;;;;7.00;6.40;;;;;;;1.86;100.00;98040.08;106902;1280;59435;-83
2023/11/18 01:58:22;;;;;;;5.40;5.00;;;;;;;1.87;100.00;98038.42;106976;1278;73869;-83
2023/11/18 02:00:51;;;;;;;5.60;5.10;;;;;;;1.88;100.00;98041.39;107071;1281;74473;-83
2023/11/18 02:03:18;;;;;;;4.60;4.20;;;;;;;1.89;100.00;98038.33;107027;1280;72424;-83
2023/11/18 02:05:45;;;;;;;4.80;4.40;;;;;;;1.91;100.00;98040.89;107075;1279;61145;-82
2023/11/18 02:08:13;;;;;;;3.60;3.30;;;;;;;1.92;100.00;98040.33;107217;1277;59951;-82
2023/11/18 02:10:55;;;;;;;3.20;2.90;;;;;;;1.93;100.00;98043.81;107071;1278;73937;-82
2023/11/18 02:13:26;;;;;;;3.10;2.80;;;;;;;1.94;100.00;98047.83;107475;1278;73466;-82
2023/11/18 02:15:58;;;;;;;2.40;2.20;;;;;;;1.95;100.00;98046.39;107286;1278;72184;-82
2023/11/18 02:18:25;;;;;;;2.30;2.00;;;;;;;1.96;100.00;98050.56;107075;1280;61123;-82
2023/11/18 02:20:59;;;;;;;1.70;1.60;;;;;;;1.97;100.00;98057.60;106925;1279;59454;-83
2023/11/18 02:23:27;;;;;;;1.50;1.40;;;;;;;1.98;100.00;98057.57;107105;1279;73922;-81
2023/11/18 02:25:55;;;;;;;1.60;1.50;;;;;;;1.97;100.00;98060.24;107128;1280;74489;-82
2023/11/18 02:28:23;;;;;;;1.60;1.50;;;;;;;1.97;100.00;98065.73;107114;1280;72782;-81
2023/11/18 02:30:51;;;;;;;1.60;1.40;;;;;;;1.96;100.00;98067.88;107216;1278;60534;-82
2023/11/18 02:33:40;;;;;;;2.10;1.90;;;;;;;1.96;100.00;98072.84;107180;1280;59023;-83
2023/11/18 02:36:20;;;;;;;1.40;1.30;;;;;;;1.96;100.00;98075.64;107198;1279;74899;-83
2023/11/18 02:38:49;;;;;;;1.70;1.60;;;;;;;1.97;100.00;98074.75;107047;1279;74421;-82
2023/11/18 02:41:18;;;;;;;1.70;1.60;;;;;;;1.96;100.00;98078.30;107064;1280;72475;-82
2023/11/18 02:43:45;;;;;;;1.80;1.70;;;;;;;1.96;100.00;98082.71;107177;1279;60150;-83
2023/11/18 02:46:12;;;;;;;2.60;2.10;;;;;;;1.95;100.00;98083.64;107194;1280;61052;-83
2023/11/18 02:48:41;;;;;;;2.10;1.60;;;;;;;1.95;100.00;98089.29;107195;1279;72754;-82
2023/11/18 02:51:09;;;;;;;2.40;1.70;;;;;;;1.95;100.00;98092.48;107259;1281;74250;-82
2023/11/18 02:53:36;;;;;;;2.30;2.00;;;;;;;1.94;100.00;98090.73;107176;1279;71577;-84
2023/11/18 02:56:04;;;;;;;1.70;1.60;;;;;;;1.94;100.00;98097.27;107043;1278;59736;-82
2023/11/18 02:58:33;;;;;;;1.90;1.80;;;;;;;1.93;100.00;98098.02;107168;1280;58992;-83
2023/11/18 03:01:00;;;;;;;2.20;2.00;;;;;;;1.93;100.00;98102.43;107202;1278;74109;-82
2023/11/18 03:03:28;;;;;;;2.30;2.10;;;;;;;1.93;100.00;98101.05;107176;1280;74613;-82
2023/11/18 03:05:55;;;;;;;1.80;1.70;;;;;;;1.93;100.00;98104.03;107191;1278;72538;-82
2023/11/18 03:08:22;;;;;;;2.20;2.10;;;;;;;1.92;100.00;98107.77;107245;1279;61055;-81
2023/11/18 03:10:52;;;;;;;2.30;2.10;;;;;;;1.93;100.00;98110.41;107260;1279;59142;-83
2023/11/18 03:13:19;;;;;;;2.10;1.90;;;;;;;1.92;100.00;98109.04;107191;1279;73872;-82
2023/11/18 03:15:48;;;;;;;2.10;1.90;;;;;;;1.92;100.00;98110.63;107049;1278;73716;-82
2023/11/18 03:18:15;;;;;;;2.10;1.80;;;;;;;1.91;100.00;98112.79;107022;1276;71403;-83
2023/11/18 03:20:43;;;;;;;2.80;2.30;;;;;;;1.91;100.00;98115.08;107175;1276;60101;-81
2023/11/18 03:23:10;;;;;;;4.90;2.00;;;;;;;1.91;100.00;98116.84;107271;1276;59479;-81
2023/11/18 03:25:37;;;;;;;3.40;3.10;;;;;;;1.90;100.00;98115.45;107303;1276;71726;-81
2023/11/18 03:28:06;;;;;;;3.00;2.70;;;;;;;1.92;100.00;98119.48;107247;1277;73067;-82
2023/11/18 03:30:35;;;;;;;2.80;2.50;;;;;;;1.92;100.00;98119.64;107285;1277;72639;-82
2023/11/18 03:33:02;;;;;;;3.00;2.70;;;;;;;1.92;100.00;98127.04;107321;1276;61173;-82
2023/11/18 03:35:29;;;;;;;3.50;3.20;;;;;;;1.92;100.00;98124.55;107216;1278;60020;-82
2023/11/18 03:37:57;;;;;;;2.30;2.10;;;;;;;1.92;100.00;98127.20;107092;1277;72966;-82
2023/11/18 03:40:24;;;;;;;3.10;2.50;;;;;;;1.92;100.00;98126.88;107124;1278;89219;-83
2023/11/18 03:42:50;;;;;;;2.20;2.00;;;;;;;1.90;100.00;98126.94;107177;1278;72412;-83
2023/11/18 03:45:18;;;;;;;3.00;2.40;;;;;;;1.89;100.00;98131.04;107173;1279;61045;-83
2023/11/18 03:47:47;;;;;;;2.70;2.50;;;;;;;1.86;100.00;98127.99;107189;1278;60247;-82
2023/11/18 03:50:14;;;;;;;2.60;2.10;;;;;;;1.84;100.00;98129.48;107196;1278;71434;-83
2023/11/18 03:52:41;;;;;;;2.60;1.80;;;;;;;1.82;100.00;98130.25;107198;1279;73685;-82
2023/11/18 03:55:08;;;;;;;3.10;1.70;;;;;;;1.80;100.00;98133.48;107211;1279;73454;-83
2023/11/18 03:57:35;;;;;;;2.10;1.80;;;;;;;1.78;100.00;98134.08;107292;1278;59946;-82
2023/11/18 04:00:03;;;;;;;2.00;1.80;;;;;;;1.76;100.00;98132.22;107401;1280;60962;-82
2023/11/18 04:02:39;;;;;;;2.40;2.20;;;;;;;1.75;100.00;98135.98;107500;1279;73324;-82
2023/11/18 04:05:08;;;;;;;2.20;2.00;;;;;;;1.74;100.00;98137.77;107360;1280;74393;-82
2023/11/18 04:07:35;;;;;;;3.20;2.00;;;;;;;1.72;100.00;98132.73;107432;1277;72705;-83
2023/11/18 04:10:02;;;;;;;5.50;2.60;;;;;;;1.70;100.00;98130.51;107569;1277;59645;-81
2023/11/18 04:12:30;;;;;;;2.90;2.30;;;;;;;1.68;100.00;98133.05;107207;1279;59118;-82
2023/11/18 04:14:57;;;;;;;2.80;2.40;;;;;;;1.67;100.00;98135.04;107021;1279;73792;-82
2023/11/18 04:17:27;;;;;;;3.40;2.90;;;;;;;1.64;100.00;98136.02;107059;1279;73420;-82
2023/11/18 04:19:55;;;;;;;3.10;2.40;;;;;;;1.62;100.00;98136.09;107250;1276;71529;-82
2023/11/18 04:22:23;;;;;;;3.10;2.80;;;;;;;1.63;100.00;98139.95;107255;1277;61345;-82
2023/11/18 04:24:50;;;;;;;6.80;4.50;;;;;;;1.61;100.00;98142.66;107222;1276;59480;-82
2023/11/18 04:27:17;;;;;;;7.90;7.10;;;;;;;1.60;100.00;98144.48;107265;1276;73776;-82
2023/11/18 04:29:44;;;;;;;6.30;4.80;;;;;;;1.60;100.00;98141.84;107278;1276;74804;-82
2023/11/18 04:32:13;;;;;;;2.80;2.50;;;;;;;1.59;100.00;98141.14;106960;1280;71996;-82
2023/11/18 04:34:42;;;;;;;2.00;1.80;;;;;;;1.61;100.00;98139.17;107102;1279;59937;-82
2023/11/18 04:37:10;;;;;;;2.50;2.10;;;;;;;1.61;100.00;98139.69;107065;1279;59154;-81
2023/11/18 04:39:37;;;;;;;2.60;2.30;;;;;;;1.59;100.00;98142.90;107081;1279;74246;-82
2023/11/18 04:42:04;;;;;;;1.80;1.70;;;;;;;1.59;100.00;98142.41;106917;1280;74273;-83
2023/11/18 04:44:31;;;;;;;2.30;2.10;;;;;;;1.57;100.00;98145.30;107056;1280;71203;-82
2023/11/18 04:46:59;;;;;;;2.50;2.30;;;;;;;1.54;100.00;98142.41;106886;1279;60867;-82
2023/11/18 04:49:26;;;;;;;2.20;2.00;;;;;;;1.52;100.00;98146.73;107088;1278;59117;-83
2023/11/18 04:51:53;;;;;;;1.90;1.60;;;;;;;1.50;100.00;98143.44;107031;1279;74064;-82
2023/11/18 04:54:20;;;;;;;2.10;1.90;;;;;;;1.47;100.00;98146.71;107188;1279;74125;-82
2023/11/18 04:56:47;;;;;;;2.40;2.20;;;;;;;1.45;100.00;98150.16;107177;1277;71600;-82
2023/11/18 04:59:14;;;;;;;2.60;2.40;;;;;;;1.44;100.00;98158.11;107175;1279;59493;-83
2023/11/18 05:01:41;;;;;;;2.40;2.20;;;;;;;1.43;100.00;98160.97;107184;1278;59307;-82
2023/11/18 05:04:09;;;;;;;2.80;2.50;;;;;;;1.43;100.00;98163.98;107187;1279;72703;-82
2023/11/18 05:06:36;;;;;;;2.10;1.90;;;;;;;1.42;100.00;98165.42;107034;1279;73117;-82
2023/11/18 05:09:07;;;;;;;3.20;2.10;;;;;;;1.42;100.00;98168.06;106909;1279;73791;-82
2023/11/18 05:11:35;;;;;;;2.80;2.40;;;;;;;1.42;100.00;98173.36;107184;1279;59406;-82
2023/11/18 05:14:06;;;;;;;2.80;2.60;;;;;;;1.43;100.00;98176.33;107192;1279;62296;-83
2023/11/18 05:16:34;;;;;;;3.00;2.70;;;;;;;1.42;100.00;98172.29;107061;1278;72229;-82
2023/11/18 05:19:01;;;;;;;2.70;2.50;;;;;;;1.44;100.00;98176.48;107048;1279;74418;-83
2023/11/18 05:21:29;;;;;;;3.10;2.80;;;;;;;1.44;100.00;98178.04;107183;1278;72390;-82
2023/11/18 05:23:57;;;;;;;3.50;3.20;;;;;;;1.46;100.00;98178.71;107199;1278;61994;-83
2023/11/18 05:26:24;;;;;;;3.10;2.80;;;;;;;1.46;100.00;98180.81;107227;1278;58976;-83
2023/11/18 05:28:51;;;;;;;3.20;2.90;;;;;;;1.47;100.00;98178.67;107020;1280;73892;-82
2023/11/18 05:31:18;;;;;;;3.40;3.10;;;;;;;1.47;100.00;98183.60;107211;1279;74584;-81
2023/11/18 05:33:51;;;;;;;4.40;3.00;;;;;;;1.47;100.00;98187.65;107216;1279;72624;-82
2023/11/18 05:36:26;;;;;;;;;;;;;;;1.47;100.00;98196.13;107235;1278;59946;-82
2023/11/18 05:38:54;;;;;;;4.10;2.90;;;;;;;1.46;100.00;98196.54;107269;1277;60139;-82
2023/11/18 05:41:27;;;;;;;3.20;2.90;;;;;;;1.46;100.00;98206.75;107004;1279;73716;-83
2023/11/18 05:43:57;;;;;;;3.70;3.40;;;;;;;1.47;100.00;98207.96;107070;1278;72248;-82
2023/11/18 05:46:25;;;;;;;4.20;3.80;;;;;;;1.48;100.00;98208.98;107213;1279;72603;-82
2023/11/18 05:48:53;;;;;;;2.90;2.70;;;;;;;1.49;100.00;98206.64;107214;1277;60117;-82
2023/11/18 05:51:21;;;;;;;3.20;3.00;;;;;;;1.50;100.00;98205.00;107208;1278;59420;-83
2023/11/18 05:53:48;;;;;;;2.70;2.50;;;;;;;1.52;100.00;98208.64;107193;1279;73641;-83
2023/11/18 05:56:18;;;;;;;2.90;2.70;;;;;;;1.54;100.00;98208.59;107176;1281;74310;-83
2023/11/18 05:58:45;;;;;;;3.30;3.00;;;;;;;1.54;100.00;98206.11;107019;1279;72362;-83
2023/11/18 06:01:13;;;;;;;2.70;2.50;;;;;;;1.54;100.00;98213.02;107187;1279;59865;-83
2023/11/18 06:03:44;;;;;;;2.90;2.60;;;;;;;1.52;100.00;98210.05;107308;1276;60535;-82
2023/11/18 06:06:13;;;;;;;3.50;3.20;;;;;;;1.52;100.00;98210.96;107045;1277;73193;-83
2023/11/18 06:08:43;;;;;;;3.20;2.90;;;;;;;1.50;100.00;98215.25;107240;1277;73121;-82
2023/11/18 06:11:13;;;;;;;4.20;2.80;;;;;;;1.49;100.00;98213.89;107203;1278;73224;-82
2023/11/18 06:13:46;;;;;;;3.10;2.90;;;;;;;1.49;100.00;98216.55;107201;1279;62356;-82
2023/11/18 06:16:14;;;;;;;3.60;3.30;;;;;;;1.47;100.00;98216.60;107189;1279;59014;-82
2023/11/18 06:18:45;;;;;;;4.20;3.30;;;;;;;1.46;100.00;98223.33;107290;1277;72417;-82
2023/11/18 06:21:18;;;;;;;3.40;3.10;;;;;;;1.46;100.00;98228.46;107232;1277;74335;-82
2023/11/18 06:23:47;;;;;;;3.50;3.20;;;;;;;1.47;100.00;98236.00;107329;1276;72381;-83
2023/11/18 06:26:14;;;;;;;3.50;3.20;;;;;;;1.49;100.00;98242.84;107159;1279;61184;-82
2023/11/18 06:28:43;;;;;;;3.60;3.30;;;;;;;1.49;100.00;98245.63;107134;1276;60283;-83
2023/11/18 06:31:11;;;;;;;4.90;4.50;;;;;;;1.50;100.00;98248.42;107127;1276;73855;-83
2023/11/18 06:33:45;;;;;;;3.90;3.60;;;;;;;1.51;100.00;98252.29;107281;1276;74341;-83
2023/11/18 06:36:21;;;;;;;;;;;;;;;1.52;100.00;98258.59;107035;1278;72482;-82
2023/11/18 06:38:49;;;;;;;3.50;3.20;;;;;;;1.52;100.00;98256.84;107169;1278;62104;-82
2023/11/18 06:41:18;;;;;;;3.10;2.90;;;;;;;1.52;100.00;98258.27;107170;1278;60468;-82
2023/11/18 06:46:22;;;;;;;2.20;2.00;;;;;;;1.53;100.00;98264.05;107233;1278;74222;-82
2023/11/18 06:48:49;;;;;;;2.60;2.40;;;;;;;1.54;100.00;98267.54;107185;1278;71707;-83
2023/11/18 06:51:16;;;;;;;2.80;2.60;;;;;;;1.54;100.00;98268.77;107179;1278;60004;-81
2023/11/18 06:53:44;;;;;;;3.00;2.50;;;;;;;1.55;100.00;98273.88;106942;1280;59054;-83
2023/11/18 06:56:11;;;;;;;3.20;2.60;;;;;;;1.55;100.00;98271.21;107219;1279;72734;-83
2023/11/18 06:58:39;;;;;;;2.60;2.40;;;;;;;1.55;100.00;98274.02;106828;1280;74288;-82
2023/11/18 07:01:07;;;;;;;3.90;3.60;;;;;;;1.57;100.00;98278.38;107327;1278;72686;-82
2023/11/18 07:03:36;;;;;;;2.90;2.60;;;;;;;1.57;100.00;98283.65;107166;1278;59927;-82
2023/11/18 07:06:05;;;;;;;3.00;2.70;;;;;;;1.58;100.00;98285.92;107026;1278;60335;-83
2023/11/18 07:08:34;;;;;;;2.60;2.40;;;;;;;1.59;100.00;98286.77;107516;1279;72886;-82
2023/11/18 07:11:02;;;;;;;3.50;2.90;;;;;;;1.59;100.00;98289.41;107477;1278;73352;-83
2023/11/18 07:13:29;;;;;;;3.50;3.00;;;;;;;1.59;100.00;98293.63;107275;1278;71431;-82
2023/11/18 07:15:57;;;;;;;3.30;2.80;;;;;;;1.58;100.00;98295.44;107067;1282;59984;-82
2023/11/18 07:18:24;;;;;;;4.40;3.70;;;;;;;1.58;100.00;98296.52;107185;1278;60931;-82
2023/11/18 07:20:52;;;;;;;4.30;3.40;;;;;;;1.58;100.00;98294.59;107129;1279;73263;-82
2023/11/18 07:23:19;;;;;;;3.90;3.20;;;;;;;1.58;100.00;98299.17;107199;1279;73208;-82
2023/11/18 07:25:46;;;;;;;2.90;2.50;;;;;;;1.57;100.00;98302.20;106930;1279;72785;-82
2023/11/18 07:28:17;;;;;;;4.20;3.30;;;;;;;1.56;100.00;98307.17;107181;1278;60696;-82
2023/11/18 07:30:47;;;;;;;3.50;3.20;;;;;;;1.55;100.00;98309.33;106992;1278;59462;-81
2023/11/18 07:33:15;;;;;;;3.60;3.30;;;;;;;1.55;100.00;98308.09;107268;1278;73852;-80
2023/11/18 07:35:43;;;;;;;3.60;3.10;;;;;;;1.54;100.00;98308.46;107514;1280;72537;-81
2023/11/18 07:38:10;;;;;;;4.60;3.40;;;;;;;1.56;100.00;98317.74;107374;1279;72841;-82
2023/11/18 07:40:42;;;;;;;4.70;3.60;;;;;;;1.57;100.00;98316.84;106940;1276;60014;-82
2023/11/18 07:43:09;;;;;;;3.40;3.10;;;;;;;1.57;100.00;98319.65;107249;1276;59503;-83
2023/11/18 07:45:40;;;;;;;4.60;3.30;;;;;;;1.58;100.00;98320.69;106974;1276;71585;-82
2023/11/18 07:48:07;;;;;;;3.60;3.30;;;;;;;1.58;100.00;98324.23;107174;1278;74326;-83
2023/11/18 07:50:35;;;;;;;4.80;4.30;;;;;;;1.58;100.00;98325.45;107076;1279;72554;-83
2023/11/18 07:53:02;;;;;;;5.50;3.70;;;;;;;1.58;100.00;98326.35;106903;1280;61015;-82
2023/11/18 07:55:29;;;;;;;4.80;4.30;;;;;;;1.57;100.00;98323.38;107209;1279;60293;-83
2023/11/18 07:57:57;;;;;;;4.60;4.20;;;;;;;1.55;100.00;98322.55;107208;1279;72911;-84
2023/11/18 08:00:24;;;;;;;5.10;4.60;;;;;;;1.55;100.00;98327.32;107013;1279;74405;-83
2023/11/18 08:02:54;;;;;;;6.60;5.90;;;;;;;1.55;100.00;98326.09;107210;1276;73579;-83
2023/11/18 08:05:22;;;;;;;5.10;4.60;;;;;;;1.56;100.00;98324.29;107200;1276;61166;-84
2023/11/18 08:07:53;;;;;;;7.50;5.60;;;;;;;1.57;100.00;98329.55;107202;1279;59151;-82
2023/11/18 08:10:21;;;;;;;5.50;5.00;;;;;;;1.58;100.00;98336.73;107200;1276;74174;-85
2023/11/18 08:12:54;;;;;;;7.10;6.00;;;;;;;1.60;100.00;98340.21;107042;1276;72811;-85
2023/11/18 08:15:26;;;;;;;6.10;5.30;;;;;;;1.62;100.00;98342.09;107192;1276;71906;-83
2023/11/18 08:17:53;;;;;;;5.20;4.60;;;;;;;1.64;100.00;98343.77;107175;1276;61457;-83
2023/11/18 08:20:24;;;;;;;5.10;4.60;;;;;;;1.65;100.00;98343.92;106783;1276;59832;-84
2023/11/18 08:22:51;;;;;;;6.00;4.90;;;;;;;1.66;100.00;98345.85;107140;1277;73520;-84
2023/11/18 08:25:19;;;;;;;6.40;5.50;;;;;;;1.65;100.00;98349.38;107171;1276;74453;-82
2023/11/18 08:27:45;;;;;;;7.30;5.60;;;;;;;1.65;100.00;98349.05;106990;1276;73520;-83
2023/11/18 08:30:13;;;;;;;7.20;5.60;;;;;;;1.64;100.00;98351.17;106979;1276;59596;-84
2023/11/18 08:32:43;;;;;;;7.40;5.90;;;;;;;1.65;100.00;98351.50;107151;1276;59150;-82
2023/11/18 08:35:15;;;;;;;9.20;5.60;;;;;;;1.66;100.00;98354.29;107083;1276;74777;-83
2023/11/18 08:37:42;;;;;;;6.30;5.60;;;;;;;1.67;100.00;98355.88;107030;1279;74241;-82
2023/11/18 08:40:14;;;;;;;4.70;4.20;;;;;;;1.68;100.00;98359.54;107188;1276;70405;-83
2023/11/18 08:42:47;;;;;;;6.70;5.80;;;;;;;1.69;100.00;98362.85;107203;1276;61197;-83
2023/11/18 08:45:27;;;;;;;5.40;4.60;;;;;;;1.70;100.00;98357.68;107232;1279;60378;-83
2023/11/18 08:47:57;;;;;;;5.60;5.10;;;;;;;1.71;100.00;98365.77;107230;1276;73837;-84
2023/11/18 08:50:25;;;;;;;5.50;4.90;;;;;;;1.72;100.00;98364.67;107158;1277;74412;-84
2023/11/18 08:52:58;;;;;;;5.00;4.30;;;;;;;1.73;100.00;98362.86;107178;1277;71069;-84
2023/11/18 08:55:39;;;;;;;4.80;4.30;;;;;;;1.75;100.00;98362.64;107200;1276;61235;-83
2023/11/18 08:58:19;;;;;;;3.90;3.40;;;;;;;1.77;100.00;98366.80;107479;1277;61604;-85
2023/11/18 09:00:52;;;;;;;5.90;3.80;;;;;;;1.78;100.00;98372.94;107272;1276;74131;-83
2023/11/18 09:03:34;;;;;;;5.10;4.40;;;;;;;1.79;100.00;98375.38;107261;1277;74418;-82
2023/11/18 09:06:15;;;;;;;4.80;4.40;;;;;;;1.80;100.00;98378.17;107366;1276;71801;-83
2023/11/18 09:08:45;;;;;;;4.40;4.00;;;;;;;1.82;100.00;98379.36;107411;1276;62481;-82
2023/11/18 09:11:14;;;;;;;4.60;4.20;;;;;;;1.82;100.00;98379.52;107459;1278;59098;-83
2023/11/18 09:13:44;;;;;;;4.30;3.90;;;;;;;1.83;100.00;98379.86;106924;1278;72780;-82
2023/11/18 09:16:12;;;;;;;5.40;4.90;;;;;;;1.85;100.00;98378.39;107166;1278;74481;-82
2023/11/18 09:18:40;;;;;;;4.40;4.00;;;;;;;1.86;100.00;98383.13;107238;1277;71570;-83
2023/11/18 09:21:19;;;;;;;5.30;4.10;;;;;;;1.87;100.00;98385.91;107185;1277;60058;-83
2023/11/18 09:23:49;;;;;;;4.70;3.70;;;;;;;1.87;100.00;98388.02;107054;1278;59329;-83
2023/11/18 09:26:16;;;;;;;4.30;3.90;;;;;;;1.87;100.00;98386.45;107101;1279;75166;-84
2023/11/18 09:28:49;;;;;;;4.00;3.60;;;;;;;1.87;100.00;98389.10;107047;1277;73174;-84
2023/11/18 09:31:41;;;;;;;3.80;3.50;;;;;;;1.86;100.00;98390.16;107334;1276;73951;-84
2023/11/18 09:34:15;;;;;;;4.50;3.80;;;;;;;1.87;100.00;98391.38;107345;1277;62244;-83
2023/11/18 09:36:43;;;;;;;;;;;;;;;1.88;100.00;98389.21;107080;1279;58965;-84
2023/11/18 09:39:28;;;;;;;4.50;4.10;;;;;;;1.89;100.00;98388.83;107260;1277;74085;-84
2023/11/18 09:41:56;;;;;;;3.50;3.20;;;;;;;1.92;100.00;98390.34;107280;1277;73992;-85
2023/11/18 09:47:24;;;;;;;3.00;2.80;;;;;;;1.96;100.00;98393.52;107234;1277;62212;-85
2023/11/18 09:50:10;;;;;;;3.20;2.30;;;;;;;1.97;100.00;98394.70;107355;1277;59848;-85
2023/11/18 09:52:42;;;;;;;3.70;3.20;;;;;;;1.99;100.00;98394.83;107087;1276;73859;-84
2023/11/18 09:55:14;;;;;;;4.20;2.60;;;;;;;2.02;100.00;98397.77;107345;1276;72497;-85
2023/11/18 09:57:44;;;;;;;2.70;2.50;;;;;;;2.04;100.00;98398.20;107315;1277;70564;-86
2023/11/18 10:00:26;;;;;;;4.30;3.60;;;;;;;2.06;100.00;98398.33;107223;1276;61202;-83
2023/11/18 10:02:55;;;;;;;5.00;3.90;;;;;;;2.08;100.00;98398.42;107229;1277;61863;-84
2023/11/18 10:05:26;;;;;;;4.10;3.50;;;;;;;2.09;100.00;98396.61;107224;1279;72455;-84
2023/11/18 10:07:58;;;;;;;4.10;3.40;;;;;;;2.09;100.00;98395.21;107398;1278;73168;-83
2023/11/18 10:10:35;;;;;;;4.30;3.90;;;;;;;2.09;100.00;98404.03;107279;1276;71545;-85
2023/11/18 10:13:08;;;;;;;2.80;2.50;;;;;;;2.08;100.00;98404.93;107092;1279;61533;-83
2023/11/18 10:15:36;;;;;;;3.40;3.10;;;;;;;2.08;100.00;98410.27;106935;1277;60335;-82
2023/11/18 10:18:15;;;;;;;3.10;2.70;;;;;;;2.08;100.00;98417.49;107003;1276;73972;-82
2023/11/18 10:20:46;;;;;;;2.90;2.60;;;;;;;2.07;100.00;98416.29;107154;1276;74191;-81
2023/11/18 10:23:18;;;;;;;4.60;3.00;;;;;;;2.06;100.00;98414.02;107085;1276;72495;-81
2023/11/18 10:25:53;;;;;;;3.40;2.10;;;;;;;2.06;100.00;98420.21;107248;1276;61182;-82
2023/11/18 10:28:27;;;;;;;3.70;2.60;;;;;;;2.05;100.00;98423.09;107027;1279;60124;-81
2023/11/18 10:31:04;;;;;;;4.60;3.10;;;;;;;2.03;100.00;98423.14;107306;1276;73821;-82
2023/11/18 10:33:37;;;;;;;3.20;2.90;;;;;;;2.01;100.00;98427.28;106943;1276;75831;-83
2023/11/18 10:36:12;;;;;;;4.90;3.50;;;;;;;1.98;100.00;98431.41;106800;1276;73094;-82
2023/11/18 10:38:49;;;;;;;2.90;2.60;;;;;;;1.98;100.00;98431.61;107279;1276;59483;-82
2023/11/18 10:41:20;;;;;;;7.70;3.50;;;;;;;1.96;100.00;98432.91;107202;1276;59580;-82
2023/11/18 10:43:50;;;;;;;4.10;2.90;;;;;;;1.95;100.00;98435.23;107205;1276;72726;-81
2023/11/18 10:46:20;;;;;;;5.50;2.80;;;;;;;1.95;100.00;98432.23;106902;1277;74446;-81
2023/11/18 10:48:48;;;;;;;6.60;3.40;;;;;;;1.95;100.00;98437.34;107166;1276;72036;-81
2023/11/18 10:51:19;;;;;;;4.60;3.30;;;;;;;1.97;100.00;98439.59;107215;1276;61220;-82
2023/11/18 10:53:53;;;;;;;2.20;1.80;;;;;;;1.96;100.00;98438.54;107319;1276;61420;-82
2023/11/18 10:56:27;;;;;;;5.90;2.70;;;;;;;1.96;100.00;98441.76;107254;1276;73802;-80
2023/11/18 10:59:07;;;;;;;3.00;2.50;;;;;;;1.94;100.00;98440.38;107140;1276;74032;-81
2023/11/18 11:01:45;;;;;;;5.60;2.70;;;;;;;1.94;100.00;98443.94;107204;1276;71492;-81
2023/11/18 11:04:21;;;;;;;3.00;2.20;;;;;;;1.93;100.00;98443.59;107151;1276;60834;-82
2023/11/18 11:06:56;;;;;;;3.20;2.80;;;;;;;1.93;100.00;98443.07;107258;1277;59221;-82
2023/11/18 11:09:35;;;;;;;5.20;3.10;;;;;;;1.96;100.00;98449.17;107373;1278;73090;-82
2023/11/18 11:12:14;;;;;;;4.70;2.90;;;;;;;1.97;100.00;98449.45;107128;1277;74474;-82
2023/11/18 11:15:09;;;;;;;6.20;2.40;;;;;;;1.98;100.00;98443.59;107321;1276;72799;-80
2023/11/18 11:17:42;;;;;;;3.90;2.50;;;;;;;2.01;100.00;98448.65;107052;1276;61054;-82
2023/11/18 11:20:25;;;;;;;3.10;2.30;;;;;;;2.01;100.00;98444.92;106991;1276;59346;-81
2023/11/18 11:23:21;;;;;;;4.00;2.90;;;;;;;2.01;100.00;98447.56;107198;1280;73836;-82
2023/11/18 11:26:05;;;;;;;5.10;2.60;;;;;;;2.01;100.00;98447.93;106977;1280;73090;-81
2023/11/18 11:28:54;;;;;;;1.90;1.70;;;;;;;2.02;100.00;98452.33;107122;1279;72172;-81
2023/11/18 11:31:32;;;;;;;2.60;2.30;;;;;;;2.02;100.00;98456.55;107088;1279;61298;-83
2023/11/18 11:34:31;;;;;;;3.00;2.60;;;;;;;2.01;100.00;98460.30;107304;1278;60352;-82
2023/11/18 11:37:01;;;;;;;3.30;3.00;;;;;;;2.00;100.00;98463.66;106942;1279;72982;-80
2023/11/18 11:39:30;;;;;;;5.70;3.70;;;;;;;2.00;100.00;98464.92;107280;1278;74900;-82
2023/11/18 11:41:59;;;;;;;4.90;4.50;;;;;;;2.00;100.00;98467.20;107330;1277;71505;-83
2023/11/18 11:44:29;;;;;;;4.10;3.70;;;;;;;1.98;100.00;98464.98;107391;1279;59652;-81